createdAt,value
2019-03-20T00:01:17.062Z,5.27
2019-03-20T00:03:47.899Z,5.20
2019-03-20T00:06:20.262Z,5.33
2019-03-20T00:08:51.139Z,5.33
2019-03-20T00:11:25.324Z,5.43
2019-03-20T00:14:15.579Z,5.70
2019-03-20T00:16:46.139Z,5.60
2019-03-20T00:19:17.570Z,5.37
2019-03-20T00:22:07.734Z,5.57
2019-03-20T00:24:58.054Z,5.90
2019-03-20T00:27:28.832Z,5.27
2019-03-20T00:29:59.982Z,5.80
2019-03-20T00:32:51.699Z,5.43
2019-03-20T00:35:33.681Z,6.43
2019-03-20T00:38:05.885Z,5.77
2019-03-20T00:43:52.390Z,5.17
2019-03-20T00:46:24.548Z,5.93
2019-03-20T00:49:15.111Z,4.93
2019-03-20T00:52:06.151Z,5.47
2019-03-20T00:54:38.069Z,5.70
2019-03-20T00:57:08.666Z,5.47
2019-03-20T00:59:39.859Z,5.03
2019-03-20T01:02:29.438Z,5.60
2019-03-20T01:05:19.403Z,6.13
2019-03-20T01:07:57.270Z,5.30
2019-03-20T01:10:28.196Z,6.07
2019-03-20T01:12:59.031Z,5.60
2019-03-20T01:15:30.080Z,5.57
2019-03-20T01:18:01.355Z,5.70
2019-03-20T01:20:32.294Z,6.57
2019-03-20T01:23:03.578Z,5.40
2019-03-20T01:25:38.112Z,4.90
2019-03-20T01:28:09.999Z,5.30
2019-03-20T01:30:41.027Z,5.23
2019-03-20T01:33:33.564Z,5.63
2019-03-20T01:36:23.599Z,5.03
2019-03-20T01:39:01.242Z,5.70
2019-03-20T01:41:38.005Z,4.57
2019-03-20T01:44:20.179Z,4.83
2019-03-20T01:47:01.838Z,4.50
2019-03-20T01:49:44.230Z,5.63
2019-03-20T01:52:29.954Z,4.47
2019-03-20T01:55:10.809Z,4.37
2019-03-20T01:58:02.147Z,5.77
2019-03-20T02:00:54.269Z,5.00
2019-03-20T02:03:44.876Z,5.63
2019-03-20T02:06:22.633Z,5.27
2019-03-20T02:09:14.834Z,4.90
2019-03-20T02:11:45.587Z,5.37
2019-03-20T02:14:16.451Z,5.37
2019-03-20T02:17:06.412Z,5.20
2019-03-20T02:19:56.427Z,5.97
2019-03-20T02:22:38.741Z,6.13
2019-03-20T02:27:50.353Z,5.63
2019-03-20T02:30:42.830Z,5.33
2019-03-20T02:33:35.898Z,5.40
2019-03-20T02:36:06.985Z,5.30
2019-03-20T02:38:41.753Z,4.90
2019-03-20T02:41:13.025Z,5.80
2019-03-20T02:44:03.163Z,6.50
2019-03-20T02:46:34.749Z,6.43
2019-03-20T02:49:24.620Z,6.47
2019-03-20T02:52:15.134Z,5.73
2019-03-20T02:55:07.565Z,5.63
2019-03-20T03:00:50.494Z,5.43
2019-03-20T03:03:40.976Z,5.63
2019-03-20T03:12:19.042Z,5.33
2019-03-20T03:15:10.651Z,4.93
2019-03-20T03:18:19.858Z,5.20
2019-03-20T03:20:51.088Z,5.23
2019-03-20T03:23:32.061Z,5.23
2019-03-20T03:26:21.961Z,5.73
2019-03-20T03:29:12.243Z,5.27
2019-03-20T03:32:02.209Z,5.63
2019-03-20T03:34:51.583Z,6.60
2019-03-20T03:43:24.365Z,6.70
2019-03-20T03:45:56.951Z,5.53
2019-03-20T03:49:05.818Z,5.67
2019-03-20T03:51:55.450Z,6.07
2019-03-20T03:54:45.433Z,5.87
2019-03-20T03:57:20.497Z,6.13
2019-03-20T04:00:11.277Z,6.60
2019-03-20T04:02:42.020Z,6.40
2019-03-20T04:05:31.620Z,6.40
2019-03-20T04:08:21.434Z,5.80
2019-03-20T04:10:52.211Z,6.23
2019-03-20T04:13:22.968Z,6.50
2019-03-20T04:16:31.996Z,5.50
2019-03-20T04:19:02.816Z,5.50
2019-03-20T04:21:34.439Z,5.73
2019-03-20T04:24:05.532Z,5.83
2019-03-20T04:26:55.490Z,6.73
2019-03-20T04:29:26.282Z,6.00
2019-03-20T04:31:56.937Z,5.77
2019-03-20T04:34:32.826Z,6.50
2019-03-20T04:37:22.609Z,6.43
2019-03-20T04:39:54.317Z,6.87
2019-03-20T04:42:44.163Z,6.40
2019-03-20T04:45:15.065Z,6.70
2019-03-20T04:48:04.850Z,6.47
2019-03-20T04:50:35.495Z,6.33
2019-03-20T04:53:06.265Z,6.10
2019-03-20T04:55:55.930Z,6.50
2019-03-20T04:58:45.566Z,6.00
2019-03-20T05:01:16.345Z,5.70
2019-03-20T05:03:47.305Z,5.87
2019-03-20T05:06:18.430Z,5.97
2019-03-20T05:08:49.084Z,5.50
2019-03-20T05:11:38.622Z,6.63
2019-03-20T05:14:09.686Z,6.40
2019-03-20T05:16:43.055Z,6.50
2019-03-20T05:19:25.693Z,6.27
2019-03-20T05:22:09.477Z,5.53
2019-03-20T05:24:40.418Z,6.47
2019-03-20T05:27:29.942Z,7.07
2019-03-20T05:30:00.919Z,6.47
2019-03-20T05:32:53.114Z,5.60
2019-03-20T05:35:43.007Z,6.07
2019-03-20T05:38:33.348Z,6.57
2019-03-20T05:41:24.275Z,5.57
2019-03-20T05:44:13.902Z,5.70
2019-03-20T05:46:56.007Z,6.27
2019-03-20T05:49:27.047Z,5.93
2019-03-20T05:51:57.795Z,6.27
2019-03-20T05:54:28.684Z,6.03
2019-03-20T05:57:18.966Z,7.37
2019-03-20T06:00:09.903Z,6.20
2019-03-20T06:02:40.813Z,6.57
2019-03-20T06:05:13.710Z,6.97
2019-03-20T06:08:03.263Z,7.53
2019-03-20T06:10:52.996Z,7.57
2019-03-20T06:13:23.754Z,7.77
2019-03-20T06:15:54.987Z,7.73
2019-03-20T06:18:47.731Z,7.27
2019-03-20T06:21:18.696Z,5.97
2019-03-20T06:23:49.731Z,7.70
2019-03-20T06:26:21.161Z,8.27
2019-03-20T06:29:10.649Z,8.03
2019-03-20T06:32:00.305Z,7.87
2019-03-20T06:34:30.910Z,7.87
2019-03-20T06:37:20.468Z,7.17
2019-03-20T06:39:53.415Z,7.47
2019-03-20T06:42:24.816Z,7.07
2019-03-20T06:45:14.571Z,6.77
2019-03-20T06:47:45.677Z,7.00
2019-03-20T06:50:17.944Z,7.67
2019-03-20T06:52:48.730Z,7.43
2019-03-20T06:55:19.824Z,8.20
2019-03-20T06:57:50.763Z,7.60
2019-03-20T07:01:01.178Z,7.03
2019-03-20T07:03:57.151Z,7.47
2019-03-20T07:06:52.736Z,8.23
2019-03-20T07:09:38.211Z,7.10
2019-03-20T07:12:27.844Z,10.93
2019-03-20T07:14:58.808Z,7.90
2019-03-20T07:17:48.667Z,9.33
2019-03-20T07:20:19.330Z,7.63
2019-03-20T07:23:08.917Z,7.77
2019-03-20T07:25:49.475Z,8.23
2019-03-20T07:28:21.365Z,7.73
2019-03-20T07:30:52.033Z,8.37
2019-03-20T07:33:23.335Z,8.13
2019-03-20T07:36:13.312Z,8.27
2019-03-20T07:38:44.535Z,7.37
2019-03-20T07:41:34.062Z,6.20
2019-03-20T07:44:04.907Z,6.50
2019-03-20T07:46:36.779Z,6.90
2019-03-20T07:49:07.682Z,6.73
2019-03-20T07:51:38.725Z,7.73
2019-03-20T07:54:09.367Z,6.37
2019-03-20T07:56:59.171Z,6.10
2019-03-20T07:59:29.749Z,7.23
2019-03-20T08:02:00.374Z,6.30
2019-03-20T08:04:31.291Z,5.97
2019-03-20T08:07:01.911Z,6.20
2019-03-20T08:09:53.844Z,6.50
2019-03-20T08:12:24.700Z,5.67
2019-03-20T08:14:55.681Z,5.87
2019-03-20T08:17:45.329Z,6.40
2019-03-20T08:20:17.449Z,6.23
2019-03-20T08:22:48.384Z,5.63
2019-03-20T08:25:30.289Z,5.80
2019-03-20T08:28:11.801Z,5.77
2019-03-20T08:30:54.504Z,4.93
2019-03-20T08:33:36.673Z,5.87
2019-03-20T08:36:07.527Z,5.00
2019-03-20T08:38:38.188Z,5.67
2019-03-20T08:41:10.257Z,5.13
2019-03-20T08:43:40.993Z,5.47
2019-03-20T08:46:13.130Z,5.53
2019-03-20T08:48:45.353Z,5.10
2019-03-20T08:51:40.814Z,5.40
2019-03-20T08:54:11.465Z,5.10
2019-03-20T08:59:31.672Z,5.00
2019-03-20T09:02:02.449Z,4.70
2019-03-20T09:04:35.751Z,5.13
2019-03-20T09:07:06.566Z,5.10
2019-03-20T09:09:37.436Z,5.13
2019-03-20T09:12:08.213Z,5.60
2019-03-20T09:14:58.055Z,5.83
2019-03-20T09:17:28.708Z,5.03
2019-03-20T09:20:18.255Z,4.47
2019-03-20T09:23:07.886Z,4.60
2019-03-20T09:25:50.135Z,4.67
2019-03-20T09:28:20.970Z,3.87
2019-03-20T09:31:11.452Z,4.30
2019-03-20T09:33:42.079Z,3.77
2019-03-20T09:36:42.664Z,4.23
2019-03-20T09:39:08.005Z,2.80
2019-03-20T09:41:39.070Z,2.93
2019-03-20T09:44:10.031Z,3.00
2019-03-20T09:46:41.137Z,2.37
2019-03-20T09:49:12.061Z,2.77
2019-03-20T09:51:43.069Z,2.93
2019-03-20T09:54:13.726Z,3.00
2019-03-20T09:57:05.959Z,2.70
2019-03-20T09:59:55.605Z,2.87
2019-03-20T10:02:28.548Z,2.60
2019-03-20T10:04:59.251Z,2.57
2019-03-20T10:07:30.467Z,2.87
2019-03-20T10:10:21.132Z,2.57
2019-03-20T10:13:29.644Z,2.90
2019-03-20T10:16:19.224Z,2.03
2019-03-20T10:19:09.081Z,3.20
2019-03-20T10:21:39.712Z,2.50
2019-03-20T10:24:30.065Z,2.33
2019-03-20T10:27:00.960Z,2.30
2019-03-20T10:29:50.565Z,1.70
2019-03-20T10:32:40.186Z,2.20
2019-03-20T10:35:11.147Z,2.07
2019-03-20T10:38:00.810Z,1.70
2019-03-20T10:40:50.491Z,2.20
2019-03-20T10:43:40.132Z,2.00
2019-03-20T10:46:29.939Z,2.43
2019-03-20T10:49:19.587Z,1.60
2019-03-20T10:51:51.188Z,1.80
2019-03-20T10:54:22.416Z,2.10
2019-03-20T10:56:53.102Z,2.63
2019-03-20T10:59:23.742Z,2.03
2019-03-20T11:01:54.837Z,2.73
2019-03-20T11:04:25.674Z,3.03
2019-03-20T11:06:59.316Z,3.23
2019-03-20T11:09:31.283Z,3.00
2019-03-20T11:29:47.728Z,2.50
2019-03-20T11:32:49.926Z,2.73
2019-03-20T11:35:27.340Z,2.40
2019-03-20T11:38:06.017Z,2.87
2019-03-20T11:40:37.858Z,2.97
2019-03-20T11:43:08.807Z,2.93
2019-03-20T11:45:39.600Z,3.10
2019-03-20T11:48:10.587Z,2.40
2019-03-20T11:50:42.063Z,2.33
2019-03-20T11:53:14.067Z,2.93
2019-03-20T11:55:45.133Z,2.10
2019-03-20T11:58:15.959Z,2.40
2019-03-20T12:00:47.169Z,2.37
2019-03-20T12:03:17.858Z,5.03
2019-03-20T12:05:48.959Z,2.37
2019-03-20T12:08:41.307Z,1.60
2019-03-20T12:11:12.998Z,2.20
2019-03-20T12:13:45.112Z,2.30
2019-03-20T12:16:16.830Z,2.07
2019-03-20T12:19:06.678Z,2.10
2019-03-20T12:21:37.351Z,2.00
2019-03-20T12:24:28.721Z,2.20
2019-03-20T12:26:59.632Z,1.87
2019-03-20T12:29:30.561Z,2.17
2019-03-20T12:32:22.196Z,1.90
2019-03-20T12:34:52.944Z,2.17
2019-03-20T12:37:42.970Z,1.87
2019-03-20T12:40:18.156Z,2.30
2019-03-20T12:42:56.486Z,2.53
2019-03-20T12:45:28.977Z,2.17
2019-03-20T12:47:59.855Z,2.50
2019-03-20T12:50:37.636Z,2.93
2019-03-20T12:53:09.236Z,2.40
2019-03-20T12:55:40.081Z,2.40
2019-03-20T13:01:41.519Z,2.73
2019-03-20T13:04:31.234Z,2.33
2019-03-20T13:07:01.939Z,2.53
2019-03-20T13:09:33.317Z,2.10
2019-03-20T13:12:04.274Z,2.93
2019-03-20T13:14:53.904Z,2.23
2019-03-20T13:17:45.293Z,2.53
2019-03-20T13:20:16.432Z,2.30
2019-03-20T13:22:49.695Z,3.00
2019-03-20T13:25:20.610Z,2.30
2019-03-20T13:27:51.573Z,1.90
2019-03-20T13:30:24.991Z,2.07
2019-03-20T13:35:33.361Z,2.47
2019-03-20T13:38:23.013Z,2.10
2019-03-20T13:40:53.723Z,2.03
2019-03-20T13:43:43.374Z,1.60
2019-03-20T13:46:32.928Z,2.27
2019-03-20T13:49:04.174Z,2.57
2019-03-20T13:51:53.746Z,2.30
2019-03-20T13:54:35.389Z,1.87
2019-03-20T13:57:15.867Z,1.90
2019-03-20T13:59:46.587Z,2.13
2019-03-20T14:02:17.391Z,2.00
2019-03-20T14:04:49.576Z,1.87
2019-03-20T14:07:57.983Z,1.90
2019-03-20T14:10:50.992Z,1.90
2019-03-20T14:13:39.717Z,2.23
2019-03-20T14:16:29.297Z,2.30
2019-03-20T14:19:18.885Z,2.43
2019-03-20T14:22:09.452Z,1.77
2019-03-20T14:24:40.629Z,1.70
2019-03-20T14:27:30.190Z,1.73
2019-03-20T14:30:24.421Z,2.00
2019-03-20T14:33:14.648Z,1.73
2019-03-20T14:36:04.195Z,2.03
2019-03-20T14:38:54.113Z,2.67
2019-03-20T14:41:43.836Z,2.07
2019-03-20T14:44:34.370Z,2.27
2019-03-20T14:47:15.035Z,2.17
2019-03-20T14:49:45.838Z,2.07
2019-03-20T14:52:17.244Z,2.50
2019-03-20T14:55:07.417Z,1.80
2019-03-20T14:57:57.632Z,2.00
2019-03-20T15:00:47.453Z,1.90
2019-03-20T15:03:38.803Z,2.10
2019-03-20T15:06:19.615Z,1.60
2019-03-20T15:08:50.260Z,2.20
2019-03-20T15:11:39.793Z,1.97
2019-03-20T15:14:29.331Z,2.00
2019-03-20T15:17:20.214Z,2.33
2019-03-20T15:19:58.108Z,2.00
2019-03-20T15:22:28.740Z,1.80
2019-03-20T15:25:18.455Z,2.00
2019-03-20T15:28:08.170Z,1.60
2019-03-20T15:30:39.396Z,1.83
2019-03-20T15:33:10.362Z,1.70
2019-03-20T15:35:41.165Z,2.00
2019-03-20T15:38:30.753Z,1.90
2019-03-20T15:41:20.319Z,2.13
2019-03-20T15:44:09.889Z,1.93
2019-03-20T15:46:59.520Z,2.17
2019-03-20T15:49:49.353Z,2.00
2019-03-20T15:52:20.368Z,2.30
2019-03-20T15:55:11.251Z,2.00
2019-03-20T15:57:44.201Z,1.93
2019-03-20T16:00:33.860Z,2.03
2019-03-20T16:03:07.630Z,2.23
2019-03-20T16:05:57.363Z,2.00
2019-03-20T16:08:28.954Z,2.43
2019-03-20T16:11:18.422Z,2.00
2019-03-20T16:14:11.480Z,2.60
2019-03-20T16:17:01.034Z,2.10
2019-03-20T16:19:50.628Z,2.17
2019-03-20T16:22:40.188Z,2.20
2019-03-20T16:25:11.415Z,2.13
2019-03-20T16:28:01.294Z,2.40
2019-03-20T16:30:51.026Z,2.23
2019-03-20T16:33:40.633Z,2.53
2019-03-20T16:36:30.166Z,2.23
2019-03-20T16:39:19.723Z,2.00
2019-03-20T16:42:09.591Z,2.37
2019-03-20T16:44:59.329Z,2.20
2019-03-20T16:47:49.316Z,1.77
2019-03-20T16:50:21.008Z,2.63
2019-03-20T16:52:52.475Z,2.00
2019-03-20T16:55:34.572Z,2.07
2019-03-20T16:58:16.257Z,2.43
2019-03-20T17:00:46.931Z,2.37
2019-03-20T17:03:36.474Z,2.30
2019-03-20T17:06:07.393Z,2.00
2019-03-20T17:08:57.990Z,2.30
2019-03-20T17:11:38.086Z,2.10
2019-03-20T17:14:01.026Z,2.20
2019-03-20T17:16:50.602Z,2.47
2019-03-20T17:19:40.303Z,2.30
2019-03-20T17:22:30.717Z,2.13
2019-03-20T17:25:01.943Z,2.60
2019-03-20T17:27:51.867Z,2.67
2019-03-20T17:30:41.482Z,2.30
2019-03-20T17:33:13.205Z,2.33
2019-03-20T17:36:03.568Z,2.30
2019-03-20T17:38:35.258Z,2.30
2019-03-20T17:41:24.835Z,2.73
2019-03-20T17:44:14.774Z,2.40
2019-03-20T17:46:49.876Z,2.40
2019-03-20T17:49:24.646Z,2.40
2019-03-20T17:52:14.406Z,2.07
2019-03-20T17:55:04.203Z,2.17
2019-03-20T17:57:53.879Z,2.27
2019-03-20T18:00:48.005Z,2.33
2019-03-20T18:03:39.123Z,2.10
2019-03-20T18:06:41.908Z,2.40
2019-03-20T18:09:01.022Z,2.50
2019-03-20T18:11:31.774Z,2.53
2019-03-20T18:14:02.419Z,3.00
2019-03-20T18:16:52.440Z,2.10
2019-03-20T18:19:41.967Z,2.23
2019-03-20T18:22:13.032Z,2.10
2019-03-20T18:24:44.913Z,2.30
2019-03-20T18:27:34.654Z,2.30
2019-03-20T18:30:07.344Z,2.17
2019-03-20T18:32:57.120Z,2.40
2019-03-20T18:35:46.903Z,2.57
2019-03-20T18:38:36.509Z,2.57
2019-03-20T18:41:26.091Z,2.20
2019-03-20T18:44:15.905Z,2.30
2019-03-20T18:46:46.511Z,2.33
2019-03-20T18:49:28.258Z,2.30
2019-03-20T18:52:09.493Z,1.97
2019-03-20T18:54:40.480Z,2.40
2019-03-20T18:57:13.693Z,2.60
2019-03-20T19:03:00.834Z,2.77
2019-03-20T19:05:52.065Z,2.40
2019-03-20T19:08:34.638Z,2.43
2019-03-20T19:11:17.393Z,2.23
2019-03-20T19:13:48.284Z,2.50
2019-03-20T19:16:19.633Z,2.67
2019-03-20T19:18:50.321Z,3.13
2019-03-20T19:21:40.000Z,3.10
2019-03-20T19:24:29.648Z,2.60
2019-03-20T19:27:19.269Z,2.97
2019-03-20T19:30:11.307Z,2.70
2019-03-20T19:33:01.243Z,2.93
2019-03-20T19:35:50.983Z,2.47
2019-03-20T19:38:34.238Z,2.43
2019-03-20T19:41:15.388Z,2.90
2019-03-20T19:44:05.273Z,2.57
2019-03-20T19:46:55.032Z,1.90
2019-03-20T19:49:25.723Z,2.77
2019-03-20T19:52:15.800Z,2.93
2019-03-20T19:54:46.558Z,2.67
2019-03-20T19:57:17.530Z,3.57
2019-03-20T19:59:48.521Z,2.53
2019-03-20T20:02:19.233Z,2.77
2019-03-20T20:04:50.095Z,2.83
2019-03-20T20:07:20.749Z,3.23
2019-03-20T20:10:10.635Z,3.17
2019-03-20T20:13:00.487Z,4.00
2019-03-20T20:15:50.055Z,3.33
2019-03-20T20:18:42.569Z,3.57
2019-03-20T20:21:32.277Z,3.03
2019-03-20T20:24:21.927Z,3.07
2019-03-20T20:26:53.854Z,6.87
2019-03-20T20:32:16.103Z,2.97
2019-03-20T20:34:49.672Z,3.27
2019-03-20T20:37:40.814Z,3.27
2019-03-20T20:40:30.504Z,4.30
2019-03-20T20:43:01.183Z,3.83
2019-03-20T20:45:32.354Z,3.70
2019-03-20T20:48:03.236Z,4.30
2019-03-20T20:50:52.928Z,3.60
2019-03-20T20:53:45.808Z,3.13
2019-03-20T20:56:16.632Z,2.77
2019-03-20T20:58:48.751Z,2.83
2019-03-20T21:01:40.757Z,3.10
2019-03-20T21:04:11.634Z,2.90
2019-03-20T21:06:43.615Z,4.67
2019-03-20T21:09:14.611Z,3.13
2019-03-20T21:14:28.544Z,3.53
2019-03-20T21:17:00.553Z,5.17
2019-03-20T21:19:50.640Z,3.43
2019-03-20T21:23:04.731Z,3.70
2019-03-20T21:25:36.141Z,3.60
2019-03-20T21:28:51.090Z,3.50
2019-03-20T21:31:35.216Z,3.10
2019-03-20T21:34:33.940Z,3.43
2019-03-20T21:37:48.689Z,4.07
2019-03-20T21:40:41.689Z,3.90
2019-03-20T21:43:50.189Z,3.73
2019-03-20T21:50:28.984Z,3.47
2019-03-20T21:53:01.430Z,4.50
2019-03-20T21:56:10.280Z,3.80
2019-03-20T21:59:15.615Z,3.33
2019-03-20T22:02:42.542Z,3.60
2019-03-20T22:05:50.935Z,4.03
2019-03-20T22:08:41.215Z,3.83
2019-03-20T22:11:58.355Z,3.87
2019-03-20T22:14:29.719Z,3.77
2019-03-20T22:17:38.135Z,3.27
2019-03-20T22:20:46.662Z,3.67
2019-03-20T22:23:40.727Z,3.67
2019-03-20T22:26:49.124Z,3.83
2019-03-20T22:29:38.986Z,3.73
2019-03-20T22:32:50.967Z,3.83
2019-03-20T22:35:48.932Z,3.97
2019-03-20T22:38:57.410Z,3.57
2019-03-20T22:42:06.146Z,3.60
2019-03-20T22:44:40.563Z,3.40
2019-03-20T22:47:48.920Z,3.97
2019-03-20T22:50:47.391Z,3.43
2019-03-20T22:53:28.964Z,3.50
2019-03-20T22:56:37.970Z,3.17
2019-03-20T22:59:27.846Z,3.10
2019-03-20T23:02:42.497Z,3.40
2019-03-20T23:05:13.985Z,4.33
2019-03-20T23:07:45.412Z,3.43
2019-03-20T23:10:36.069Z,3.80
2019-03-20T23:13:18.293Z,3.60
2019-03-20T23:15:59.052Z,3.67
2019-03-20T23:18:30.450Z,3.47
2019-03-20T23:21:23.534Z,3.77
2019-03-20T23:24:13.382Z,3.30
2019-03-20T23:27:04.314Z,4.10
2019-03-20T23:29:57.808Z,3.27
2019-03-20T23:32:29.233Z,3.50
2019-03-20T23:38:15.243Z,3.37
2019-03-20T23:40:46.623Z,3.67
2019-03-20T23:43:36.905Z,3.50
2019-03-20T23:46:10.026Z,3.20
2019-03-20T23:49:07.581Z,3.77
2019-03-20T23:51:58.207Z,4.00
2019-03-20T23:54:47.331Z,3.90
2019-03-20T23:57:19.236Z,3.50
